createdAt,value
2023-05-11T00:00:40.648Z,101763.63
2023-05-11T00:03:07.856Z,101765.64
2023-05-11T00:05:35.029Z,101767.20
2023-05-11T00:08:02.184Z,101765.08
2023-05-11T00:10:29.781Z,101764.70
2023-05-11T00:12:57.966Z,101766.23
2023-05-11T00:15:25.826Z,101765.86
2023-05-11T00:17:52.997Z,101767.13
2023-05-11T00:20:22.292Z,101769.95
2023-05-11T00:22:49.862Z,101766.95
2023-05-11T00:25:17.059Z,101766.23
2023-05-11T00:27:46.289Z,101767.45
2023-05-11T00:30:15.066Z,101767.13
2023-05-11T00:32:43.102Z,101764.48
2023-05-11T00:35:11.768Z,101769.75
2023-05-11T00:37:41.852Z,101767.23
2023-05-11T00:40:09.401Z,101769.86
2023-05-11T00:42:36.683Z,101774.15
2023-05-11T00:45:04.662Z,101776.69
2023-05-11T00:47:32.263Z,101778.23
2023-05-11T00:49:59.397Z,101782.31
2023-05-11T00:52:27.248Z,101780.73
2023-05-11T00:54:54.362Z,101782.48
2023-05-11T00:57:21.617Z,101781.61
2023-05-11T00:59:49.977Z,101780.80
2023-05-11T01:02:17.609Z,101776.17
2023-05-11T01:04:45.024Z,101776.44
2023-05-11T01:07:29.545Z,101781.19
2023-05-11T01:10:10.668Z,101780.17
2023-05-11T01:12:56.231Z,101779.31
2023-05-11T01:15:26.286Z,101780.65
2023-05-11T01:18:25.156Z,101778.88
2023-05-11T01:20:55.520Z,101780.56
2023-05-11T01:23:26.017Z,101779.71
2023-05-11T01:26:02.663Z,101780.05
2023-05-11T01:28:45.247Z,101779.23
2023-05-11T01:31:13.133Z,101780.45
2023-05-11T01:33:44.752Z,101776.02
2023-05-11T01:36:11.786Z,101779.84
2023-05-11T01:38:41.151Z,101776.48
2023-05-11T01:41:16.064Z,101776.90
2023-05-11T01:43:44.584Z,101773.27
2023-05-11T01:46:11.697Z,101774.63
2023-05-11T01:48:40.380Z,101771.18
2023-05-11T01:51:07.399Z,101773.57
2023-05-11T01:53:35.976Z,101773.27
2023-05-11T01:56:03.279Z,101771.96
2023-05-11T01:58:30.483Z,101773.21
2023-05-11T02:00:58.135Z,101776.36
2023-05-11T02:03:25.250Z,101772.16
2023-05-11T02:05:52.713Z,101770.05
2023-05-11T02:08:19.993Z,101771.55
2023-05-11T02:10:47.586Z,101774.05
2023-05-11T02:13:14.754Z,101770.52
2023-05-11T02:15:42.531Z,101774.27
2023-05-11T02:18:11.573Z,101776.01
2023-05-11T02:20:39.763Z,101775.48
2023-05-11T02:23:07.057Z,101775.08
2023-05-11T02:25:34.105Z,101777.73
2023-05-11T02:28:01.538Z,101777.45
2023-05-11T02:30:28.664Z,101779.10
2023-05-11T02:32:56.740Z,101782.47
2023-05-11T02:35:25.976Z,101781.23
2023-05-11T02:37:55.051Z,101784.89
2023-05-11T02:40:26.740Z,101786.88
2023-05-11T02:42:57.314Z,101784.45
2023-05-11T02:45:24.619Z,101787.56
2023-05-11T02:47:55.334Z,101785.88
2023-05-11T02:50:25.726Z,101787.88
2023-05-11T02:52:57.285Z,101788.13
2023-05-11T02:55:24.607Z,101787.23
2023-05-11T02:57:51.731Z,101783.42
2023-05-11T03:00:19.161Z,101786.34
2023-05-11T03:02:46.760Z,101787.29
2023-05-11T03:05:15.514Z,101788.06
2023-05-11T03:07:43.250Z,101792.23
2023-05-11T03:10:10.963Z,101792.79
2023-05-11T03:12:40.174Z,101788.77
2023-05-11T03:15:08.516Z,101792.66
2023-05-11T03:17:36.053Z,101799.63
2023-05-11T03:20:04.221Z,101797.98
2023-05-11T03:22:31.676Z,101801.02
2023-05-11T03:24:58.854Z,101803.34
2023-05-11T03:27:26.106Z,101808.10
2023-05-11T03:29:53.315Z,101809.69
2023-05-11T03:32:20.693Z,101813.42
2023-05-11T03:34:47.967Z,101816.73
2023-05-11T03:37:15.802Z,101818.05
2023-05-11T03:39:44.203Z,101818.36
2023-05-11T03:42:12.582Z,101821.14
2023-05-11T03:44:39.626Z,101825.04
2023-05-11T03:47:06.674Z,101823.11
2023-05-11T03:49:34.553Z,101828.40
2023-05-11T03:52:03.126Z,101826.96
2023-05-11T03:54:30.243Z,101832.77
2023-05-11T03:56:57.298Z,101833.32
2023-05-11T03:59:24.301Z,101839.05
2023-05-11T04:01:53.453Z,101839.33
2023-05-11T04:04:21.533Z,101839.36
2023-05-11T04:06:48.711Z,101843.89
2023-05-11T04:09:19.048Z,101842.33
2023-05-11T04:11:46.127Z,101844.42
2023-05-11T04:14:13.283Z,101845.42
2023-05-11T04:16:40.325Z,101853.39
2023-05-11T04:19:07.666Z,101853.36
2023-05-11T04:21:36.178Z,101858.80
2023-05-11T04:24:03.967Z,101861.92
2023-05-11T04:26:31.091Z,101862.83
2023-05-11T04:28:58.130Z,101866.01
2023-05-11T04:31:25.194Z,101867.12
2023-05-11T04:33:52.427Z,101872.05
2023-05-11T04:36:20.593Z,101867.45
2023-05-11T04:38:47.666Z,101872.42
2023-05-11T04:41:15.714Z,101868.00
2023-05-11T04:43:42.952Z,101867.98
2023-05-11T04:46:10.494Z,101871.30
2023-05-11T04:48:37.602Z,101869.27
2023-05-11T04:51:06.250Z,101870.29
2023-05-11T04:53:38.754Z,101873.52
2023-05-11T04:56:05.954Z,101875.05
2023-05-11T04:58:33.004Z,101872.42
2023-05-11T05:01:01.383Z,101869.00
2023-05-11T05:03:30.854Z,101867.61
2023-05-11T05:06:00.444Z,101865.47
2023-05-11T05:08:28.595Z,101867.56
2023-05-11T05:10:55.962Z,101869.67
2023-05-11T05:13:24.060Z,101868.29
2023-05-11T05:15:51.888Z,101871.14
2023-05-11T05:18:19.163Z,101872.30
2023-05-11T05:20:48.385Z,101874.34
2023-05-11T05:23:15.518Z,101868.29
2023-05-11T05:25:42.816Z,101868.66
2023-05-11T05:28:11.910Z,101870.61
2023-05-11T05:30:40.986Z,101872.58
2023-05-11T05:33:09.459Z,101870.28
2023-05-11T05:35:36.474Z,101869.61
2023-05-11T05:38:03.831Z,101872.06
2023-05-11T05:40:31.444Z,101872.79
2023-05-11T05:42:58.532Z,101874.20
2023-05-11T05:45:25.987Z,101870.13
2023-05-11T05:47:54.663Z,101870.20
2023-05-11T05:50:22.627Z,101873.50
2023-05-11T05:52:49.688Z,101872.67
2023-05-11T05:55:17.467Z,101872.02
2023-05-11T05:57:46.281Z,101871.35
2023-05-11T06:00:14.152Z,101874.23
2023-05-11T06:02:41.876Z,101876.60
2023-05-11T06:05:15.954Z,101873.51
2023-05-11T06:07:46.627Z,101873.75
2023-05-11T06:10:19.161Z,101872.55
2023-05-11T06:12:47.107Z,101875.77
2023-05-11T06:15:15.453Z,101877.47
2023-05-11T06:17:46.364Z,101873.42
2023-05-11T06:20:14.189Z,101872.23
2023-05-11T06:22:41.455Z,101873.09
2023-05-11T06:25:08.862Z,101878.14
2023-05-11T06:27:36.280Z,101878.77
2023-05-11T06:30:03.468Z,101879.34
2023-05-11T06:32:34.278Z,101881.67
2023-05-11T06:35:02.368Z,101880.16
2023-05-11T06:37:30.410Z,101880.20
2023-05-11T06:39:58.779Z,101876.38
2023-05-11T06:42:27.308Z,101878.61
2023-05-11T06:45:04.598Z,101879.62
2023-05-11T06:47:33.206Z,101878.73
2023-05-11T06:50:01.066Z,101879.52
2023-05-11T06:52:28.432Z,101879.82
2023-05-11T06:54:56.429Z,101881.78
2023-05-11T06:57:23.557Z,101882.36
2023-05-11T06:59:50.870Z,101881.46
2023-05-11T07:02:18.243Z,101882.02
2023-05-11T07:04:45.391Z,101886.33
2023-05-11T07:07:12.610Z,101884.13
2023-05-11T07:09:41.892Z,101887.33
2023-05-11T07:12:09.632Z,101888.63
2023-05-11T07:14:36.875Z,101884.85
2023-05-11T07:17:04.869Z,101891.45
2023-05-11T07:19:32.289Z,101896.31
2023-05-11T07:21:59.503Z,101893.27
2023-05-11T07:24:26.786Z,101893.17
2023-05-11T07:26:53.894Z,101891.32
2023-05-11T07:29:21.388Z,101891.84
2023-05-11T07:31:48.623Z,101893.27
2023-05-11T07:34:16.408Z,101894.91
2023-05-11T07:36:43.551Z,101893.81
2023-05-11T07:39:11.907Z,101895.58
2023-05-11T07:41:40.524Z,101891.60
2023-05-11T07:44:09.953Z,101891.95
2023-05-11T07:46:37.617Z,101889.92
2023-05-11T07:49:16.785Z,101890.00
2023-05-11T07:51:45.909Z,101891.00
2023-05-11T07:54:13.046Z,101888.38
2023-05-11T07:56:40.221Z,101884.42
2023-05-11T07:59:07.358Z,101888.68
2023-05-11T08:01:36.952Z,101887.71
2023-05-11T08:04:04.254Z,101889.39
2023-05-11T08:06:31.354Z,101892.29
2023-05-11T08:08:58.954Z,101891.17
2023-05-11T08:11:28.314Z,101889.63
2023-05-11T08:13:55.394Z,101886.66
2023-05-11T08:16:22.870Z,101887.20
2023-05-11T08:18:49.994Z,101881.15
2023-05-11T08:21:17.818Z,101877.71
2023-05-11T08:23:45.262Z,101882.01
2023-05-11T08:26:12.401Z,101879.48
2023-05-11T08:28:39.686Z,101877.63
2023-05-11T08:31:07.133Z,101877.64
2023-05-11T08:33:38.003Z,101880.96
2023-05-11T08:36:07.014Z,101879.71
2023-05-11T08:38:35.513Z,101884.25
2023-05-11T08:41:03.007Z,101889.97
2023-05-11T08:43:30.154Z,101887.47
2023-05-11T08:45:58.322Z,101889.52
2023-05-11T08:48:25.437Z,101894.84
2023-05-11T08:50:52.868Z,101893.29
2023-05-11T08:53:20.086Z,101884.31
2023-05-11T08:55:47.364Z,101879.64
2023-05-11T08:58:19.631Z,101883.60
2023-05-11T09:00:47.401Z,101878.30
2023-05-11T09:03:14.891Z,101875.79
2023-05-11T09:05:42.273Z,101878.09
2023-05-11T09:08:09.392Z,101875.77
2023-05-11T09:10:36.982Z,101872.38
2023-05-11T09:13:04.203Z,101870.63
2023-05-11T09:15:37.081Z,101870.82
2023-05-11T09:18:05.229Z,101868.44
2023-05-11T09:20:33.512Z,101863.38
2023-05-11T09:23:01.108Z,101866.34
2023-05-11T09:25:30.842Z,101864.41
2023-05-11T09:28:00.869Z,101864.41
2023-05-11T09:37:58.534Z,101865.68
2023-05-11T09:43:00.965Z,101863.59
2023-05-11T09:45:36.329Z,101859.34
2023-05-11T09:48:06.773Z,101855.71
2023-05-11T09:50:34.577Z,101848.10
2023-05-11T09:53:01.688Z,101847.59
2023-05-11T09:55:28.914Z,101851.95
2023-05-11T09:57:57.680Z,101850.27
2023-05-11T10:00:24.976Z,101849.70
2023-05-11T10:03:06.663Z,101847.86
2023-05-11T10:05:34.866Z,101842.79
2023-05-11T10:08:05.614Z,101846.09
2023-05-11T10:10:32.816Z,101839.02
2023-05-11T10:13:01.657Z,101839.15
2023-05-11T10:15:32.222Z,101838.94
2023-05-11T10:18:02.277Z,101838.46
2023-05-11T10:20:29.734Z,101840.17
2023-05-11T10:22:56.777Z,101838.19
2023-05-11T10:25:26.009Z,101837.16
2023-05-11T10:27:53.119Z,101833.23
2023-05-11T10:30:20.417Z,101831.23
2023-05-11T10:32:49.196Z,101828.29
2023-05-11T10:35:16.939Z,101831.48
2023-05-11T10:37:44.132Z,101833.40
2023-05-11T10:40:11.530Z,101832.78
2023-05-11T10:42:45.292Z,101828.61
2023-05-11T10:45:41.138Z,101830.66
2023-05-11T10:48:36.661Z,101828.73
2023-05-11T10:51:19.018Z,101826.09
2023-05-11T10:53:54.853Z,101826.41
2023-05-11T10:56:56.045Z,101824.29
2023-05-11T10:59:52.023Z,101821.81
2023-05-11T11:02:19.799Z,101820.39
2023-05-11T11:04:48.374Z,101815.36
2023-05-11T11:07:21.108Z,101812.01
2023-05-11T11:09:51.714Z,101812.30
2023-05-11T11:12:19.606Z,101811.11
2023-05-11T11:15:13.184Z,101813.27
2023-05-11T11:17:40.575Z,101815.80
2023-05-11T11:20:08.044Z,101811.45
2023-05-11T11:22:35.047Z,101815.46
2023-05-11T11:25:05.331Z,101812.04
2023-05-11T11:27:42.478Z,101812.02
2023-05-11T11:30:17.130Z,101814.27
2023-05-11T11:32:48.517Z,101819.02
2023-05-11T11:35:40.822Z,101820.77
2023-05-11T11:38:09.048Z,101813.95
2023-05-11T11:40:49.460Z,101812.55
2023-05-11T11:43:19.374Z,101811.94
2023-05-11T11:45:59.075Z,101813.59
2023-05-11T11:48:30.466Z,101811.77
2023-05-11T11:51:07.973Z,101807.97
2023-05-11T11:53:40.441Z,101804.25
2023-05-11T11:56:13.597Z,101804.93
2023-05-11T11:58:40.650Z,101800.23
2023-05-11T12:01:08.029Z,101799.16
2023-05-11T12:03:36.149Z,101796.19
2023-05-11T12:06:07.490Z,101792.17
2023-05-11T12:08:36.075Z,101782.91
2023-05-11T12:11:03.606Z,101782.56
2023-05-11T12:13:31.505Z,101787.34
2023-05-11T12:16:13.981Z,101785.08
2023-05-11T12:18:41.590Z,101783.88
2023-05-11T12:21:21.636Z,101785.34
2023-05-11T12:23:52.764Z,101781.33
2023-05-11T12:26:21.330Z,101780.23
2023-05-11T12:28:51.962Z,101774.40
2023-05-11T12:31:18.998Z,101773.55
2023-05-11T12:33:51.435Z,101776.08
2023-05-11T12:36:20.279Z,101773.19
2023-05-11T12:38:49.283Z,101771.79
2023-05-11T12:41:25.351Z,101769.33
2023-05-11T12:43:53.880Z,101775.27
2023-05-11T12:46:22.509Z,101771.02
2023-05-11T12:48:50.046Z,101772.01
2023-05-11T12:51:42.774Z,101768.29
2023-05-11T12:54:11.214Z,101765.64
2023-05-11T12:56:51.354Z,101764.61
2023-05-11T12:59:31.139Z,101768.63
2023-05-11T13:02:20.814Z,101762.70
2023-05-11T13:04:48.040Z,101763.84
2023-05-11T13:07:23.622Z,101759.17
2023-05-11T13:09:57.984Z,101754.87
2023-05-11T13:12:25.860Z,101752.33
2023-05-11T13:15:07.683Z,101751.05
2023-05-11T13:17:39.646Z,101747.67
2023-05-11T13:20:29.061Z,101751.79
2023-05-11T13:23:06.874Z,101749.42
2023-05-11T13:25:35.270Z,101748.13
2023-05-11T13:28:02.303Z,101746.77
2023-05-11T13:30:29.513Z,101745.67
2023-05-11T13:32:56.796Z,101744.56
2023-05-11T13:35:23.732Z,101746.25
2023-05-11T13:37:50.702Z,101748.31
2023-05-11T13:40:17.741Z,101751.17
2023-05-11T13:42:45.578Z,101750.61
2023-05-11T13:45:12.690Z,101745.35
2023-05-11T13:47:41.501Z,101741.58
2023-05-11T13:50:09.813Z,101736.77
2023-05-11T13:52:36.883Z,101739.77
2023-05-11T13:55:04.393Z,101740.23
2023-05-11T13:57:31.633Z,101740.09
2023-05-11T13:59:58.584Z,101740.36
2023-05-11T14:02:26.067Z,101741.06
2023-05-11T14:04:53.330Z,101737.92
2023-05-11T14:15:21.465Z,101739.88
2023-05-11T14:17:49.394Z,101740.13
2023-05-11T14:20:17.365Z,101745.33
2023-05-11T14:22:44.783Z,101743.23
2023-05-11T14:25:11.786Z,101742.67
2023-05-11T14:27:38.918Z,101743.71
2023-05-11T14:30:07.094Z,101741.42
2023-05-11T14:32:34.998Z,101742.59
2023-05-11T14:35:01.932Z,101741.48
2023-05-11T14:37:29.209Z,101736.84
2023-05-11T14:39:56.209Z,101736.33
2023-05-11T14:42:23.425Z,101735.48
2023-05-11T14:44:50.479Z,101734.11
2023-05-11T14:47:17.401Z,101735.23
2023-05-11T14:49:44.611Z,101737.44
2023-05-11T14:52:11.867Z,101733.67
2023-05-11T14:54:38.784Z,101736.09
2023-05-11T14:57:06.020Z,101737.54
2023-05-11T14:59:32.896Z,101738.86
2023-05-11T15:02:00.062Z,101742.85
2023-05-11T15:04:27.099Z,101744.45
2023-05-11T15:06:54.469Z,101745.89
2023-05-11T15:09:21.591Z,101746.54
2023-05-11T15:11:48.650Z,101747.45
2023-05-11T15:14:16.300Z,101748.52
2023-05-11T15:16:43.265Z,101748.04
2023-05-11T15:19:12.074Z,101751.98
2023-05-11T15:21:39.202Z,101751.83
2023-05-11T15:24:07.513Z,101749.04
2023-05-11T15:26:36.721Z,101744.23
2023-05-11T15:29:03.770Z,101750.67
2023-05-11T15:31:30.715Z,101747.92
2023-05-11T15:33:59.826Z,101747.08
2023-05-11T15:36:29.982Z,101746.41
2023-05-11T15:38:57.009Z,101747.90
2023-05-11T15:41:25.854Z,101748.52
2023-05-11T15:43:54.493Z,101745.65
2023-05-11T15:46:22.023Z,101742.92
2023-05-11T15:48:49.134Z,101740.20
2023-05-11T15:51:16.758Z,101745.77
2023-05-11T15:53:43.901Z,101748.77
2023-05-11T15:56:13.447Z,101750.90
2023-05-11T15:58:42.660Z,101750.68
2023-05-11T16:01:10.430Z,101754.22
2023-05-11T16:03:37.731Z,101755.90
2023-05-11T16:06:06.090Z,101758.55
2023-05-11T16:08:33.951Z,101763.88
2023-05-11T16:11:00.954Z,101765.88
2023-05-11T16:13:27.870Z,101766.91
2023-05-11T16:15:54.782Z,101763.32
2023-05-11T16:18:21.920Z,101765.50
2023-05-11T16:20:48.900Z,101765.58
2023-05-11T16:23:15.873Z,101767.27
2023-05-11T16:25:42.969Z,101767.71
2023-05-11T16:28:10.125Z,101766.98
2023-05-11T16:30:37.162Z,101768.61
2023-05-11T16:33:04.147Z,101772.02
2023-05-11T16:35:33.524Z,101770.15
2023-05-11T16:38:00.695Z,101774.00
2023-05-11T16:40:27.713Z,101774.20
2023-05-11T16:42:54.862Z,101774.48
2023-05-11T16:45:22.364Z,101780.33
2023-05-11T16:47:49.614Z,101783.48
2023-05-11T16:50:17.591Z,101784.16
2023-05-11T16:52:45.441Z,101785.80
2023-05-11T16:55:12.738Z,101785.59
2023-05-11T16:57:40.033Z,101783.96
2023-05-11T17:00:08.452Z,101785.08
2023-05-11T17:02:36.415Z,101787.17
2023-05-11T17:05:05.005Z,101790.36
2023-05-11T17:07:32.327Z,101791.20
2023-05-11T17:10:00.690Z,101793.29
2023-05-11T17:12:28.486Z,101791.24
2023-05-11T17:14:56.986Z,101791.37
2023-05-11T17:17:24.216Z,101793.11
2023-05-11T17:19:51.415Z,101794.31
2023-05-11T17:22:19.634Z,101796.56
2023-05-11T17:24:48.178Z,101798.57
2023-05-11T17:27:15.977Z,101796.98
2023-05-11T17:29:43.828Z,101798.86
2023-05-11T17:32:10.940Z,101800.58
2023-05-11T17:34:38.064Z,101802.94
2023-05-11T17:37:05.267Z,101809.17
2023-05-11T17:39:33.624Z,101805.88
2023-05-11T17:42:01.651Z,101803.52
2023-05-11T17:44:30.312Z,101803.08
2023-05-11T17:46:57.682Z,101809.02
2023-05-11T17:49:24.898Z,101808.01
2023-05-11T17:51:52.013Z,101812.95
2023-05-11T17:54:20.149Z,101816.22
2023-05-11T17:56:47.167Z,101813.35
2023-05-11T17:59:14.913Z,101813.65
2023-05-11T18:01:42.860Z,101817.52
2023-05-11T18:04:10.083Z,101816.26
2023-05-11T18:06:37.077Z,101820.56
2023-05-11T18:09:08.219Z,101822.73
2023-05-11T18:11:35.544Z,101824.88
2023-05-11T18:14:03.281Z,101825.95
2023-05-11T18:16:30.883Z,101826.05
2023-05-11T18:19:00.290Z,101827.45
2023-05-11T18:21:28.457Z,101827.64
2023-05-11T18:23:56.118Z,101825.12
2023-05-11T18:26:25.472Z,101828.63
2023-05-11T18:28:54.531Z,101829.01
2023-05-11T18:31:21.885Z,101829.23
2023-05-11T18:33:49.658Z,101829.27
2023-05-11T18:36:16.975Z,101829.36
2023-05-11T18:38:44.060Z,101826.57
2023-05-11T18:41:11.444Z,101830.77
2023-05-11T18:43:38.652Z,101824.96
2023-05-11T18:46:08.241Z,101829.36
2023-05-11T18:48:36.951Z,101827.89
2023-05-11T18:51:04.720Z,101826.45
2023-05-11T18:53:35.924Z,101826.39
2023-05-11T18:56:04.936Z,101825.08
2023-05-11T18:58:32.282Z,101830.59
2023-05-11T19:00:59.249Z,101827.34
2023-05-11T19:03:26.324Z,101825.09
2023-05-11T19:05:54.801Z,101823.20
2023-05-11T19:08:23.719Z,101822.98
2023-05-11T19:10:53.978Z,101820.62
2023-05-11T19:13:21.685Z,101818.84
2023-05-11T19:15:49.481Z,101816.33
2023-05-11T19:18:17.276Z,101817.98
2023-05-11T19:20:44.382Z,101817.70
2023-05-11T19:23:11.590Z,101813.36
2023-05-11T19:25:38.666Z,101810.10
2023-05-11T19:28:06.842Z,101815.10
2023-05-11T19:30:36.040Z,101816.01
2023-05-11T19:33:03.394Z,101815.91
2023-05-11T19:35:33.058Z,101813.19
2023-05-11T19:38:01.257Z,101814.23
2023-05-11T19:43:02.024Z,101812.05
2023-05-11T19:45:32.754Z,101813.64
2023-05-11T19:48:00.265Z,101810.69
2023-05-11T19:50:29.304Z,101815.61
2023-05-11T19:52:56.980Z,101812.09
2023-05-11T19:55:23.936Z,101809.84
2023-05-11T19:57:52.253Z,101811.94
2023-05-11T20:00:24.442Z,101810.61
2023-05-11T20:02:52.219Z,101810.86
2023-05-11T20:05:19.254Z,101807.24
2023-05-11T20:07:46.241Z,101805.20
2023-05-11T20:10:13.437Z,101809.40
2023-05-11T20:12:40.408Z,101812.66
2023-05-11T20:15:07.989Z,101808.46
2023-05-11T20:17:35.563Z,101808.04
2023-05-11T20:20:02.884Z,101806.67
2023-05-11T20:22:30.801Z,101803.19
2023-05-11T20:24:57.671Z,101809.89
2023-05-11T20:27:24.733Z,101815.32
2023-05-11T20:29:52.948Z,101812.92
2023-05-11T20:32:20.226Z,101818.39
2023-05-11T20:34:48.351Z,101815.65
2023-05-11T20:37:16.690Z,101812.79
2023-05-11T20:39:46.224Z,101812.27
2023-05-11T20:42:13.571Z,101812.60
2023-05-11T20:44:40.567Z,101810.23
2023-05-11T20:47:08.560Z,101808.41
2023-05-11T20:49:39.402Z,101810.64
2023-05-11T20:52:07.435Z,101809.77
2023-05-11T20:54:35.172Z,101812.67
2023-05-11T20:57:02.626Z,101807.96
2023-05-11T21:02:02.328Z,101810.95
2023-05-11T21:04:31.776Z,101810.04
2023-05-11T21:06:58.755Z,101811.59
2023-05-11T21:09:25.805Z,101811.88
2023-05-11T21:11:52.854Z,101812.21
2023-05-11T21:14:19.835Z,101813.34
2023-05-11T21:16:47.361Z,101815.27
2023-05-11T21:19:15.909Z,101815.84
2023-05-11T21:21:42.820Z,101814.40
2023-05-11T21:24:09.937Z,101810.83
2023-05-11T21:26:37.515Z,101811.80
2023-05-11T21:29:04.747Z,101814.24
2023-05-11T21:31:32.250Z,101812.54
2023-05-11T21:33:59.512Z,101816.83
2023-05-11T21:36:26.566Z,101814.87
2023-05-11T21:38:53.555Z,101816.04
2023-05-11T21:41:20.870Z,101815.81
2023-05-11T21:43:47.914Z,101816.05
2023-05-11T21:46:14.974Z,101815.09
2023-05-11T21:48:42.506Z,101814.33
2023-05-11T21:51:09.440Z,101815.23
2023-05-11T21:53:36.743Z,101816.20
2023-05-11T21:56:03.921Z,101815.88
2023-05-11T21:58:31.331Z,101816.83
2023-05-11T22:00:58.494Z,101815.23
2023-05-11T22:03:28.168Z,101815.86
2023-05-11T22:05:55.346Z,101819.02
2023-05-11T22:08:22.427Z,101819.27
2023-05-11T22:10:49.327Z,101825.14
2023-05-11T22:13:16.607Z,101822.80
2023-05-11T22:15:43.641Z,101826.86
2023-05-11T22:18:11.111Z,101824.88
2023-05-11T22:20:40.075Z,101826.25
2023-05-11T22:23:07.562Z,101829.27
2023-05-11T22:25:34.529Z,101825.92
2023-05-11T22:28:01.700Z,101826.36
2023-05-11T22:30:28.966Z,101828.91
2023-05-11T22:32:56.042Z,101826.85
2023-05-11T22:35:23.613Z,101821.61
2023-05-11T22:37:50.947Z,101825.63
2023-05-11T22:40:19.257Z,101826.45
2023-05-11T22:42:46.557Z,101825.33
2023-05-11T22:45:14.885Z,101824.31
2023-05-11T22:47:42.406Z,101819.65
2023-05-11T22:50:11.609Z,101820.23
2023-05-11T22:52:38.956Z,101818.23
2023-05-11T22:55:06.726Z,101820.11
2023-05-11T22:57:34.805Z,101818.14
2023-05-11T23:00:03.244Z,101815.91
2023-05-11T23:02:33.002Z,101816.10
2023-05-11T23:05:00.334Z,101818.98
2023-05-11T23:07:30.213Z,101821.13
2023-05-11T23:09:59.012Z,101822.88
2023-05-11T23:12:26.185Z,101821.49
2023-05-11T23:14:53.365Z,101825.21
2023-05-11T23:17:20.488Z,101828.48
2023-05-11T23:19:47.693Z,101832.47
2023-05-11T23:22:14.757Z,101834.36
